createdAt,value
2019-01-13T00:00:26.010Z,6.94
2019-01-13T00:01:26.001Z,6.92
2019-01-13T00:02:25.965Z,6.99
2019-01-13T00:03:25.939Z,6.94
2019-01-13T00:04:25.926Z,6.99
2019-01-13T00:05:25.892Z,6.94
2019-01-13T00:06:25.883Z,6.94
2019-01-13T00:07:26.724Z,6.92
2019-01-13T00:08:25.817Z,7.05
2019-01-13T00:09:25.794Z,6.94
2019-01-13T00:10:25.823Z,6.95
2019-01-13T00:11:25.747Z,6.94
2019-01-13T00:12:25.723Z,6.95
2019-01-13T00:13:25.697Z,6.94
2019-01-13T00:14:26.852Z,6.95
2019-01-13T00:15:25.658Z,6.95
2019-01-13T00:16:25.643Z,6.91
2019-01-13T00:17:25.605Z,6.91
2019-01-13T00:18:25.585Z,6.95
2019-01-13T00:19:25.558Z,7.05
2019-01-13T00:20:25.538Z,7.06
2019-01-13T00:21:25.510Z,7.03
2019-01-13T00:22:25.483Z,7.07
2019-01-13T00:23:25.465Z,7.05
2019-01-13T00:24:25.474Z,7.07
2019-01-13T00:25:25.410Z,7.06
2019-01-13T00:26:25.392Z,6.99
2019-01-13T00:27:25.365Z,7.03
2019-01-13T00:28:25.344Z,7.09
2019-01-13T00:29:25.316Z,7.10
2019-01-13T00:30:25.313Z,7.16
2019-01-13T00:31:25.271Z,7.05
2019-01-13T00:32:25.247Z,7.05
2019-01-13T00:33:25.228Z,7.17
2019-01-13T00:34:25.199Z,7.17
2019-01-13T00:35:25.183Z,7.15
2019-01-13T00:36:25.152Z,7.16
2019-01-13T00:37:25.133Z,7.09
2019-01-13T00:38:25.108Z,7.07
2019-01-13T00:39:25.091Z,7.12
2019-01-13T00:40:25.055Z,7.15
2019-01-13T00:41:25.034Z,7.16
2019-01-13T00:42:25.005Z,7.09
2019-01-13T00:43:24.982Z,7.16
2019-01-13T00:44:24.963Z,7.13
2019-01-13T00:45:24.934Z,7.16
2019-01-13T00:46:24.911Z,7.15
2019-01-13T00:47:24.885Z,7.15
2019-01-13T00:48:24.860Z,7.06
2019-01-13T00:49:24.838Z,7.10
2019-01-13T00:50:24.815Z,7.12
2019-01-13T00:51:24.788Z,7.12
2019-01-13T00:52:24.765Z,7.17
2019-01-13T00:53:24.752Z,7.06
2019-01-13T00:54:24.715Z,7.12
2019-01-13T00:55:24.706Z,7.07
2019-01-13T00:56:24.672Z,7.10
2019-01-13T00:57:24.650Z,7.17
2019-01-13T00:58:24.621Z,7.20
2019-01-13T00:59:24.599Z,7.09
2019-01-13T01:00:26.754Z,7.07
2019-01-13T01:01:24.559Z,7.15
2019-01-13T01:02:24.531Z,7.16
2019-01-13T01:03:24.501Z,7.12
2019-01-13T01:04:24.479Z,7.16
2019-01-13T01:05:24.461Z,7.15
2019-01-13T01:06:24.440Z,7.16
2019-01-13T01:07:24.414Z,7.16
2019-01-13T01:08:24.384Z,7.16
2019-01-13T01:09:24.368Z,7.13
2019-01-13T01:10:24.346Z,7.20
2019-01-13T01:11:24.317Z,7.21
2019-01-13T01:12:24.288Z,7.17
2019-01-13T01:13:24.267Z,7.16
2019-01-13T01:14:24.239Z,7.15
2019-01-13T01:15:24.224Z,7.21
2019-01-13T01:16:24.193Z,7.12
2019-01-13T01:17:24.167Z,7.12
2019-01-13T01:18:24.148Z,7.16
2019-01-13T01:19:24.120Z,7.15
2019-01-13T01:20:24.096Z,7.15
2019-01-13T01:21:24.074Z,7.16
2019-01-13T01:22:24.051Z,7.06
2019-01-13T01:23:24.025Z,7.16
2019-01-13T01:24:24.002Z,7.17
2019-01-13T01:25:23.983Z,7.13
2019-01-13T01:26:23.962Z,7.17
2019-01-13T01:27:23.930Z,7.17
2019-01-13T01:28:23.909Z,7.16
2019-01-13T01:29:23.882Z,7.16
2019-01-13T01:30:23.863Z,7.15
2019-01-13T01:31:23.840Z,7.16
2019-01-13T01:32:23.814Z,7.12
2019-01-13T01:33:26.098Z,7.15
2019-01-13T01:34:23.765Z,7.12
2019-01-13T01:35:23.755Z,7.09
2019-01-13T01:36:23.722Z,7.09
2019-01-13T01:37:23.692Z,7.17
2019-01-13T01:38:23.671Z,7.16
2019-01-13T01:39:23.645Z,7.16
2019-01-13T01:40:23.623Z,7.24
2019-01-13T01:41:23.595Z,7.16
2019-01-13T01:42:23.576Z,7.24
2019-01-13T01:43:23.554Z,7.25
2019-01-13T01:44:23.529Z,7.16
2019-01-13T01:45:23.514Z,7.24
2019-01-13T01:46:23.479Z,7.28
2019-01-13T01:47:23.454Z,7.24
2019-01-13T01:48:23.431Z,7.15
2019-01-13T01:49:23.406Z,7.21
2019-01-13T01:50:23.383Z,7.15
2019-01-13T01:51:23.365Z,7.16
2019-01-13T01:52:23.342Z,7.16
2019-01-13T01:53:23.316Z,7.17
2019-01-13T01:54:23.288Z,7.16
2019-01-13T01:55:23.265Z,7.23
2019-01-13T01:56:23.243Z,7.16
2019-01-13T01:57:23.217Z,7.16
2019-01-13T01:58:23.194Z,7.20
2019-01-13T01:59:23.171Z,7.15
2019-01-13T02:00:23.145Z,7.20
2019-01-13T02:01:23.124Z,7.16
2019-01-13T02:02:23.100Z,7.24
2019-01-13T02:03:23.074Z,7.27
2019-01-13T02:04:23.077Z,7.17
2019-01-13T02:05:23.031Z,7.27
2019-01-13T02:06:23.004Z,7.21
2019-01-13T02:07:22.988Z,7.16
2019-01-13T02:08:22.988Z,7.13
2019-01-13T02:09:22.936Z,7.16
2019-01-13T02:10:22.909Z,7.20
2019-01-13T02:11:22.884Z,7.23
2019-01-13T02:12:22.862Z,7.15
2019-01-13T02:13:22.837Z,7.27
2019-01-13T02:14:22.815Z,7.25
2019-01-13T02:15:22.791Z,7.21
2019-01-13T02:16:22.768Z,7.24
2019-01-13T02:17:22.742Z,7.25
2019-01-13T02:18:22.718Z,7.28
2019-01-13T02:19:22.697Z,7.23
2019-01-13T02:20:22.673Z,7.25
2019-01-13T02:21:22.658Z,7.30
2019-01-13T02:22:22.624Z,7.32
2019-01-13T02:23:22.599Z,7.17
2019-01-13T02:24:22.577Z,7.27
2019-01-13T02:25:22.552Z,7.24
2019-01-13T02:26:22.533Z,7.25
2019-01-13T02:27:22.505Z,7.25
2019-01-13T02:28:22.481Z,7.23
2019-01-13T02:29:22.457Z,7.24
2019-01-13T02:30:22.432Z,7.24
2019-01-13T02:31:22.409Z,7.30
2019-01-13T02:32:22.388Z,7.27
2019-01-13T02:33:22.368Z,7.27
2019-01-13T02:34:22.340Z,7.20
2019-01-13T02:35:22.325Z,7.31
2019-01-13T02:36:22.292Z,7.23
2019-01-13T02:37:22.268Z,7.27
2019-01-13T02:38:22.244Z,7.27
2019-01-13T02:39:22.224Z,7.24
2019-01-13T02:40:22.208Z,7.21
2019-01-13T02:41:22.173Z,7.24
2019-01-13T02:42:22.151Z,7.20
2019-01-13T02:43:22.125Z,7.27
2019-01-13T02:44:22.100Z,7.24
2019-01-13T02:45:22.075Z,7.23
2019-01-13T02:46:22.053Z,7.37
2019-01-13T02:47:22.036Z,7.25
2019-01-13T02:48:22.007Z,7.28
2019-01-13T02:49:21.992Z,7.20
2019-01-13T02:50:21.961Z,7.28
2019-01-13T02:51:21.933Z,7.23
2019-01-13T02:52:21.911Z,7.23
2019-01-13T02:53:21.886Z,7.23
2019-01-13T02:54:21.864Z,7.20
2019-01-13T02:55:21.839Z,7.17
2019-01-13T02:56:21.816Z,7.21
2019-01-13T02:57:21.791Z,7.31
2019-01-13T02:58:21.768Z,7.23
2019-01-13T02:59:21.745Z,7.25
2019-01-13T03:00:21.725Z,7.30
2019-01-13T03:01:21.696Z,7.32
2019-01-13T03:02:21.677Z,7.23
2019-01-13T03:03:21.650Z,7.32
2019-01-13T03:04:21.642Z,7.25
2019-01-13T03:05:21.608Z,7.24
2019-01-13T03:06:21.579Z,7.27
2019-01-13T03:07:21.555Z,7.35
2019-01-13T03:08:21.530Z,7.31
2019-01-13T03:09:21.505Z,7.39
2019-01-13T03:10:21.484Z,7.39
2019-01-13T03:11:21.462Z,7.37
2019-01-13T03:12:21.441Z,7.39
2019-01-13T03:13:21.412Z,7.35
2019-01-13T03:14:21.388Z,7.24
2019-01-13T03:15:21.367Z,7.35
2019-01-13T03:16:21.356Z,7.39
2019-01-13T03:17:21.317Z,7.34
2019-01-13T03:18:21.293Z,7.40
2019-01-13T03:19:21.270Z,7.40
2019-01-13T03:20:21.247Z,7.34
2019-01-13T03:21:21.228Z,7.39
2019-01-13T03:22:21.198Z,7.35
2019-01-13T03:23:21.174Z,7.42
2019-01-13T03:24:21.149Z,7.37
2019-01-13T03:25:21.127Z,7.37
2019-01-13T03:26:21.103Z,7.37
2019-01-13T03:27:21.080Z,7.34
2019-01-13T03:28:21.056Z,7.39
2019-01-13T03:29:21.035Z,7.34
2019-01-13T03:30:21.024Z,7.42
2019-01-13T03:31:20.992Z,7.35
2019-01-13T03:32:20.967Z,7.42
2019-01-13T03:33:20.940Z,7.37
2019-01-13T03:34:20.919Z,7.40
2019-01-13T03:35:20.889Z,7.42
2019-01-13T03:36:20.864Z,7.42
2019-01-13T03:37:20.842Z,7.40
2019-01-13T03:38:20.822Z,7.46
2019-01-13T03:39:20.796Z,7.43
2019-01-13T03:40:20.771Z,7.42
2019-01-13T03:41:20.747Z,7.40
2019-01-13T03:42:20.730Z,7.50
2019-01-13T03:43:20.698Z,7.40
2019-01-13T03:44:20.677Z,7.46
2019-01-13T03:45:20.654Z,7.50
2019-01-13T03:46:20.627Z,7.45
2019-01-13T03:47:20.615Z,7.50
2019-01-13T03:48:20.582Z,7.39
2019-01-13T03:49:20.556Z,7.46
2019-01-13T03:50:20.532Z,7.49
2019-01-13T03:51:20.511Z,7.49
2019-01-13T03:52:20.489Z,7.46
2019-01-13T03:53:20.463Z,7.39
2019-01-13T03:54:20.450Z,7.46
2019-01-13T03:55:20.429Z,7.40
2019-01-13T03:56:20.399Z,7.49
2019-01-13T03:57:20.370Z,7.50
2019-01-13T03:58:20.352Z,7.45
2019-01-13T03:59:20.324Z,7.42
2019-01-13T04:00:20.302Z,7.48
2019-01-13T04:01:20.273Z,7.46
2019-01-13T04:02:20.252Z,7.45
2019-01-13T04:03:20.236Z,7.43
2019-01-13T04:04:20.212Z,7.42
2019-01-13T04:05:20.179Z,7.48
2019-01-13T04:06:20.172Z,7.46
2019-01-13T04:07:20.140Z,7.46
2019-01-13T04:08:20.110Z,7.58
2019-01-13T04:09:20.081Z,7.48
2019-01-13T04:10:20.112Z,7.42
2019-01-13T04:11:20.035Z,7.46
2019-01-13T04:12:20.013Z,7.57
2019-01-13T04:13:19.988Z,7.50
2019-01-13T04:14:19.965Z,7.58
2019-01-13T04:15:19.945Z,7.45
2019-01-13T04:16:19.919Z,7.48
2019-01-13T04:17:19.897Z,7.50
2019-01-13T04:18:19.870Z,7.53
2019-01-13T04:19:19.850Z,7.48
2019-01-13T04:20:19.824Z,7.60
2019-01-13T04:21:19.801Z,7.53
2019-01-13T04:22:19.776Z,7.58
2019-01-13T04:23:19.752Z,7.52
2019-01-13T04:24:19.730Z,7.58
2019-01-13T04:25:19.706Z,7.52
2019-01-13T04:26:19.681Z,7.50
2019-01-13T04:27:19.662Z,7.57
2019-01-13T04:28:19.639Z,7.58
2019-01-13T04:29:19.610Z,7.50
2019-01-13T04:30:19.585Z,7.50
2019-01-13T04:31:26.388Z,7.53
2019-01-13T04:32:19.541Z,7.52
2019-01-13T04:33:19.518Z,7.55
2019-01-13T04:34:19.495Z,7.52
2019-01-13T04:35:19.468Z,7.52
2019-01-13T04:36:19.446Z,7.61
2019-01-13T04:37:19.422Z,7.57
2019-01-13T04:38:19.412Z,7.57
2019-01-13T04:39:19.372Z,7.52
2019-01-13T04:40:19.383Z,7.63
2019-01-13T04:41:19.325Z,7.48
2019-01-13T04:42:19.302Z,7.57
2019-01-13T04:43:19.290Z,7.58
2019-01-13T04:44:19.260Z,7.63
2019-01-13T04:45:19.231Z,7.68
2019-01-13T04:46:19.209Z,7.63
2019-01-13T04:47:19.192Z,7.58
2019-01-13T04:48:19.173Z,7.64
2019-01-13T04:49:19.136Z,7.58
2019-01-13T04:50:19.125Z,7.63
2019-01-13T04:51:19.090Z,7.67
2019-01-13T04:52:19.068Z,7.63
2019-01-13T04:53:19.042Z,7.63
2019-01-13T04:54:19.024Z,7.58
2019-01-13T04:55:18.995Z,7.58
2019-01-13T04:56:18.971Z,7.63
2019-01-13T04:57:18.948Z,7.67
2019-01-13T04:58:18.929Z,7.64
2019-01-13T04:59:18.898Z,7.67
2019-01-13T05:00:18.878Z,7.64
2019-01-13T05:01:18.855Z,7.69
2019-01-13T05:02:18.836Z,7.67
2019-01-13T05:03:18.805Z,7.68
2019-01-13T05:04:18.783Z,7.67
2019-01-13T05:05:18.758Z,7.68
2019-01-13T05:06:18.736Z,7.67
2019-01-13T05:07:18.715Z,7.67
2019-01-13T05:08:18.696Z,7.67
2019-01-13T05:09:18.665Z,7.69
2019-01-13T05:10:18.644Z,7.67
2019-01-13T05:11:18.616Z,7.68
2019-01-13T05:12:18.596Z,7.67
2019-01-13T05:13:18.572Z,7.67
2019-01-13T05:14:18.554Z,7.61
2019-01-13T05:15:18.521Z,7.68
2019-01-13T05:16:18.498Z,7.58
2019-01-13T05:17:18.476Z,7.74
2019-01-13T05:18:18.450Z,7.71
2019-01-13T05:19:18.429Z,7.63
2019-01-13T05:20:18.408Z,7.67
2019-01-13T05:21:18.384Z,7.68
2019-01-13T05:22:18.359Z,7.68
2019-01-13T05:23:18.338Z,7.72
2019-01-13T05:24:18.310Z,7.63
2019-01-13T05:25:18.284Z,7.63
2019-01-13T05:26:19.622Z,7.60
2019-01-13T05:27:18.239Z,7.71
2019-01-13T05:28:18.215Z,7.64
2019-01-13T05:29:18.196Z,7.63
2019-01-13T05:30:18.169Z,7.63
2019-01-13T05:31:18.145Z,7.64
2019-01-13T05:32:18.123Z,7.67
2019-01-13T05:33:18.099Z,7.69
2019-01-13T05:34:18.074Z,7.83
2019-01-13T05:35:18.054Z,7.67
2019-01-13T05:36:18.037Z,7.68
2019-01-13T05:37:18.007Z,7.67
2019-01-13T05:38:17.980Z,7.77
2019-01-13T05:39:17.957Z,7.67
2019-01-13T05:40:17.936Z,7.64
2019-01-13T05:41:17.909Z,7.71
2019-01-13T05:42:17.898Z,7.74
2019-01-13T05:43:17.865Z,7.72
2019-01-13T05:44:17.846Z,7.75
2019-01-13T05:45:17.820Z,7.75
2019-01-13T05:46:17.791Z,7.75
2019-01-13T05:47:17.771Z,7.71
2019-01-13T05:48:17.746Z,7.79
2019-01-13T05:49:17.730Z,7.72
2019-01-13T05:50:17.696Z,7.71
2019-01-13T05:51:17.676Z,7.74
2019-01-13T05:52:17.654Z,7.80
2019-01-13T05:53:17.628Z,7.71
2019-01-13T05:54:17.601Z,7.82
2019-01-13T05:55:17.584Z,7.75
2019-01-13T05:56:17.559Z,7.71
2019-01-13T05:57:17.530Z,7.79
2019-01-13T05:58:17.513Z,7.79
2019-01-13T05:59:17.484Z,7.79
2019-01-13T06:00:17.468Z,7.72
2019-01-13T06:01:17.438Z,7.74
2019-01-13T06:02:17.414Z,7.69
2019-01-13T06:03:17.394Z,7.72
2019-01-13T06:04:17.369Z,7.69
2019-01-13T06:05:17.343Z,7.69
2019-01-13T06:06:17.318Z,7.80
2019-01-13T06:07:17.294Z,7.77
2019-01-13T06:08:17.273Z,7.79
2019-01-13T06:09:17.246Z,7.82
2019-01-13T06:10:17.225Z,7.77
2019-01-13T06:11:17.203Z,7.75
2019-01-13T06:12:17.182Z,7.75
2019-01-13T06:13:17.152Z,7.82
2019-01-13T06:14:17.130Z,7.82
2019-01-13T06:15:17.108Z,7.69
2019-01-13T06:16:17.082Z,7.79
2019-01-13T06:17:17.059Z,7.79
2019-01-13T06:18:17.035Z,7.77
2019-01-13T06:19:17.011Z,7.80
2019-01-13T06:20:16.993Z,7.75
2019-01-13T06:21:16.965Z,7.71
2019-01-13T06:22:16.938Z,7.82
2019-01-13T06:23:16.918Z,7.72
2019-01-13T06:24:16.895Z,7.86
2019-01-13T06:25:16.883Z,7.85
2019-01-13T06:26:16.853Z,7.72
2019-01-13T06:27:16.822Z,7.80
2019-01-13T06:28:16.800Z,7.82
2019-01-13T06:29:16.776Z,7.75
2019-01-13T06:30:16.758Z,7.75
2019-01-13T06:31:16.731Z,7.72
2019-01-13T06:32:16.704Z,7.71
2019-01-13T06:33:16.678Z,7.79
2019-01-13T06:34:16.662Z,7.79
2019-01-13T06:35:16.633Z,7.69
2019-01-13T06:36:16.617Z,7.74
2019-01-13T06:37:16.590Z,7.82
2019-01-13T06:38:16.568Z,7.79
2019-01-13T06:39:16.545Z,7.74
2019-01-13T06:40:16.519Z,7.77
2019-01-13T06:41:16.492Z,7.75
2019-01-13T06:42:16.469Z,7.79
2019-01-13T06:43:16.445Z,7.74
2019-01-13T06:44:16.422Z,7.79
2019-01-13T06:45:16.400Z,7.82
2019-01-13T06:46:16.375Z,7.74
2019-01-13T06:47:16.355Z,7.80
2019-01-13T06:48:16.328Z,7.82
2019-01-13T06:49:16.306Z,7.80
2019-01-13T06:50:16.280Z,7.80
2019-01-13T06:51:16.268Z,7.79
2019-01-13T06:52:16.233Z,7.72
2019-01-13T06:53:16.211Z,7.83
2019-01-13T06:54:16.185Z,7.71
2019-01-13T06:55:16.164Z,7.75
2019-01-13T06:56:16.139Z,7.79
2019-01-13T06:57:16.114Z,7.80
2019-01-13T06:58:16.093Z,7.80
2019-01-13T06:59:16.067Z,7.83
2019-01-13T07:00:16.055Z,7.75
2019-01-13T07:01:16.020Z,7.85
2019-01-13T07:02:15.997Z,7.77
2019-01-13T07:03:15.987Z,7.85
2019-01-13T07:04:15.951Z,7.79
2019-01-13T07:05:15.927Z,7.75
2019-01-13T07:06:15.910Z,7.80
2019-01-13T07:07:15.880Z,7.82
2019-01-13T07:08:15.857Z,7.75
2019-01-13T07:09:15.832Z,7.83
2019-01-13T07:10:15.812Z,7.82
2019-01-13T07:11:15.786Z,7.86
2019-01-13T07:12:15.762Z,7.87
2019-01-13T07:13:15.738Z,7.83
2019-01-13T07:14:15.713Z,7.83
2019-01-13T07:15:15.692Z,7.83
2019-01-13T07:16:15.671Z,7.92
2019-01-13T07:17:15.649Z,7.86
2019-01-13T07:18:15.622Z,7.83
2019-01-13T07:19:15.598Z,7.87
2019-01-13T07:20:15.580Z,7.83
2019-01-13T07:21:15.558Z,7.86
2019-01-13T07:22:15.581Z,7.87
2019-01-13T07:23:15.519Z,7.86
2019-01-13T07:24:15.482Z,7.86
2019-01-13T07:25:15.473Z,7.89
2019-01-13T07:26:15.440Z,7.89
2019-01-13T07:27:15.410Z,7.92
2019-01-13T07:28:15.387Z,7.95
2019-01-13T07:29:15.363Z,8.00
2019-01-13T07:30:15.341Z,7.97
2019-01-13T07:31:15.326Z,7.92
2019-01-13T07:32:15.291Z,7.90
2019-01-13T07:33:15.268Z,7.89
2019-01-13T07:34:15.248Z,7.92
2019-01-13T07:35:15.223Z,7.87
2019-01-13T07:36:15.198Z,7.95
2019-01-13T07:37:15.173Z,7.98
2019-01-13T07:38:15.152Z,8.02
2019-01-13T07:39:15.128Z,7.92
2019-01-13T07:40:15.104Z,8.05
2019-01-13T07:41:15.079Z,7.98
2019-01-13T07:42:15.056Z,8.02
2019-01-13T07:43:15.041Z,8.02
2019-01-13T07:44:15.010Z,8.04
2019-01-13T07:45:14.985Z,8.01
2019-01-13T07:46:14.966Z,7.98
2019-01-13T07:47:14.940Z,8.04
2019-01-13T07:48:14.915Z,8.10
2019-01-13T07:49:14.894Z,8.12
2019-01-13T07:50:14.879Z,8.11
2019-01-13T07:51:14.849Z,8.11
2019-01-13T07:52:14.819Z,8.12
2019-01-13T07:53:14.800Z,8.12
2019-01-13T07:54:14.773Z,8.18
2019-01-13T07:55:14.749Z,8.16
2019-01-13T07:56:14.735Z,8.08
2019-01-13T07:57:14.709Z,8.25
2019-01-13T07:58:14.683Z,8.20
2019-01-13T07:59:14.656Z,8.19
2019-01-13T08:00:14.635Z,8.19
2019-01-13T08:01:14.609Z,8.18
2019-01-13T08:02:17.948Z,8.22
2019-01-13T08:03:14.564Z,8.22
2019-01-13T08:04:14.543Z,8.30
2019-01-13T08:05:14.516Z,8.25
2019-01-13T08:06:14.505Z,8.30
2019-01-13T08:07:14.469Z,8.30
2019-01-13T08:08:14.448Z,8.22
2019-01-13T08:09:14.423Z,8.25
2019-01-13T08:10:14.399Z,8.29
2019-01-13T08:11:14.378Z,8.30
2019-01-13T08:12:14.357Z,8.33
2019-01-13T08:13:14.338Z,8.33
2019-01-13T08:14:14.307Z,8.40
2019-01-13T08:15:14.282Z,8.33
2019-01-13T08:16:14.262Z,8.37
2019-01-13T08:17:14.239Z,8.37
2019-01-13T08:18:14.220Z,8.40
2019-01-13T08:19:14.189Z,8.40
2019-01-13T08:20:14.165Z,8.41
2019-01-13T08:21:14.154Z,8.37
2019-01-13T08:22:14.120Z,8.48
2019-01-13T08:23:14.094Z,8.48
2019-01-13T08:24:14.077Z,8.41
2019-01-13T08:25:14.054Z,8.45
2019-01-13T08:26:14.025Z,8.44
2019-01-13T08:27:14.000Z,8.48
2019-01-13T08:28:13.979Z,8.52
2019-01-13T08:29:13.963Z,8.52
2019-01-13T08:30:13.933Z,8.52
2019-01-13T08:31:13.909Z,8.50
2019-01-13T08:32:13.890Z,8.50
2019-01-13T08:33:13.863Z,8.50
2019-01-13T08:34:13.848Z,8.62
2019-01-13T08:35:13.825Z,8.61
2019-01-13T08:36:13.805Z,8.50
2019-01-13T08:37:13.769Z,8.61
2019-01-13T08:38:13.744Z,8.63
2019-01-13T08:39:13.723Z,8.56
2019-01-13T08:40:13.715Z,8.62
2019-01-13T08:41:13.679Z,8.61
2019-01-13T08:42:13.654Z,8.63
2019-01-13T08:43:13.637Z,8.66
2019-01-13T08:44:13.606Z,8.56
2019-01-13T08:45:13.587Z,8.58
2019-01-13T08:46:13.562Z,8.55
2019-01-13T08:47:13.538Z,8.56
2019-01-13T08:48:13.519Z,8.62
2019-01-13T08:49:13.489Z,8.65
2019-01-13T08:50:13.473Z,8.65
2019-01-13T08:51:13.451Z,8.56
2019-01-13T08:52:13.420Z,8.65
2019-01-13T08:53:13.396Z,8.74
2019-01-13T08:54:13.374Z,8.63
2019-01-13T08:55:13.353Z,8.71
2019-01-13T08:56:13.334Z,8.61
2019-01-13T08:57:14.607Z,8.68
2019-01-13T08:58:13.291Z,8.59
2019-01-13T08:59:13.264Z,8.70
2019-01-13T09:00:13.241Z,8.66
2019-01-13T09:01:13.218Z,8.66
2019-01-13T09:02:13.188Z,8.66
2019-01-13T09:03:13.167Z,8.66
2019-01-13T09:04:13.141Z,8.68
2019-01-13T09:05:13.128Z,8.84
2019-01-13T09:06:13.105Z,8.80
2019-01-13T09:07:13.075Z,8.84
2019-01-13T09:08:13.055Z,8.74
2019-01-13T09:09:13.032Z,8.77
2019-01-13T09:10:13.010Z,8.79
2019-01-13T09:11:12.991Z,8.87
2019-01-13T09:12:12.964Z,8.79
2019-01-13T09:13:12.940Z,8.79
2019-01-13T09:14:12.912Z,8.84
2019-01-13T09:15:12.896Z,8.81
2019-01-13T09:16:12.864Z,8.76
2019-01-13T09:17:12.842Z,8.86
2019-01-13T09:18:12.821Z,8.79
2019-01-13T09:19:12.799Z,8.81
2019-01-13T09:20:12.775Z,8.89
2019-01-13T09:21:12.748Z,8.79
2019-01-13T09:22:12.730Z,8.81
2019-01-13T09:23:12.706Z,8.86
2019-01-13T09:24:12.679Z,8.89
2019-01-13T09:25:12.654Z,8.89
2019-01-13T09:26:12.631Z,8.92
2019-01-13T09:27:12.612Z,8.89
2019-01-13T09:28:12.594Z,8.92
2019-01-13T09:29:12.567Z,8.92
2019-01-13T09:30:12.538Z,8.89
2019-01-13T09:31:12.515Z,8.95
2019-01-13T09:32:12.494Z,8.91
2019-01-13T09:33:12.478Z,8.94
2019-01-13T09:34:12.456Z,8.94
2019-01-13T09:35:12.435Z,9.01
2019-01-13T09:36:12.401Z,8.89
2019-01-13T09:37:12.383Z,8.95
2019-01-13T09:38:12.361Z,8.95
2019-01-13T09:39:12.335Z,9.01
2019-01-13T09:40:12.311Z,8.99
2019-01-13T09:41:12.292Z,9.02
2019-01-13T09:42:12.264Z,9.05
2019-01-13T09:43:12.242Z,9.01
2019-01-13T09:44:12.225Z,8.95
2019-01-13T09:45:12.195Z,9.02
2019-01-13T09:46:12.181Z,8.98
2019-01-13T09:47:12.147Z,9.02
2019-01-13T09:48:12.125Z,8.95
2019-01-13T09:49:12.104Z,8.98
2019-01-13T09:50:12.078Z,8.98
2019-01-13T09:51:12.063Z,9.04
2019-01-13T09:52:12.035Z,9.02
2019-01-13T09:53:12.016Z,9.02
2019-01-13T09:54:11.987Z,9.01
2019-01-13T09:55:11.970Z,8.96
2019-01-13T09:56:11.950Z,9.08
2019-01-13T09:57:11.924Z,9.05
2019-01-13T09:58:11.895Z,9.08
2019-01-13T09:59:11.869Z,9.10
2019-01-13T10:00:11.848Z,9.08
2019-01-13T10:01:11.826Z,9.10
2019-01-13T10:02:11.803Z,9.04
2019-01-13T10:03:11.781Z,9.11
2019-01-13T10:04:11.762Z,9.11
2019-01-13T10:05:11.736Z,9.08
2019-01-13T10:06:11.709Z,9.10
2019-01-13T10:07:11.694Z,9.08
2019-01-13T10:08:11.664Z,9.08
2019-01-13T10:09:11.640Z,9.08
2019-01-13T10:10:11.616Z,9.08
2019-01-13T10:11:11.603Z,9.11
2019-01-13T10:12:11.583Z,9.13
2019-01-13T10:13:11.550Z,9.10
2019-01-13T10:14:11.525Z,9.08
2019-01-13T10:15:11.506Z,9.14
2019-01-13T10:16:11.485Z,9.13
2019-01-13T10:17:11.466Z,9.11
2019-01-13T10:18:11.448Z,9.11
2019-01-13T10:19:11.411Z,9.08
2019-01-13T10:20:11.393Z,9.08
2019-01-13T10:21:11.373Z,9.08
2019-01-13T10:22:11.342Z,9.13
2019-01-13T10:23:11.322Z,9.08
2019-01-13T10:24:11.304Z,9.14
2019-01-13T10:25:11.273Z,9.18
2019-01-13T10:26:11.255Z,9.11
2019-01-13T10:27:11.225Z,9.05
2019-01-13T10:28:11.202Z,9.20
2019-01-13T10:29:11.182Z,9.13
2019-01-13T10:30:11.156Z,9.14
2019-01-13T10:31:11.140Z,9.15
2019-01-13T10:32:11.111Z,9.10
2019-01-13T10:33:11.090Z,9.14
2019-01-13T10:34:11.067Z,9.13
2019-01-13T10:35:11.049Z,9.13
2019-01-13T10:36:11.022Z,9.17
2019-01-13T10:37:11.000Z,9.15
2019-01-13T10:38:10.974Z,9.02
2019-01-13T10:39:10.950Z,9.14
2019-01-13T10:40:10.926Z,9.13
2019-01-13T10:41:10.908Z,9.10
2019-01-13T10:42:10.881Z,9.14
2019-01-13T10:43:10.862Z,9.13
2019-01-13T10:44:10.837Z,9.20
2019-01-13T10:45:10.819Z,9.17
2019-01-13T10:46:10.793Z,9.14
2019-01-13T10:47:10.779Z,9.10
2019-01-13T10:48:10.749Z,9.17
2019-01-13T10:49:10.720Z,9.15
2019-01-13T10:50:10.715Z,9.11
2019-01-13T10:51:10.688Z,9.15
2019-01-13T10:52:10.672Z,9.11
2019-01-13T10:53:10.630Z,9.11
2019-01-13T10:54:10.614Z,9.11
2019-01-13T10:55:10.591Z,9.23
2019-01-13T10:56:10.560Z,9.17
2019-01-13T10:57:10.537Z,9.10
2019-01-13T10:58:10.525Z,9.05
2019-01-13T10:59:10.495Z,9.10
2019-01-13T11:00:10.466Z,9.23
2019-01-13T11:01:10.441Z,9.15
2019-01-13T11:02:10.433Z,9.11
2019-01-13T11:03:10.394Z,9.14
2019-01-13T11:04:10.380Z,9.15
2019-01-13T11:05:10.358Z,9.18
2019-01-13T11:06:10.338Z,9.10
2019-01-13T11:07:10.306Z,9.11
2019-01-13T11:08:11.719Z,9.11
2019-01-13T11:09:10.264Z,9.08
2019-01-13T11:10:10.238Z,9.23
2019-01-13T11:11:10.213Z,9.13
2019-01-13T11:12:10.192Z,9.11
2019-01-13T11:13:10.180Z,9.15
2019-01-13T11:14:10.142Z,9.17
2019-01-13T11:15:10.119Z,9.18
2019-01-13T11:16:10.100Z,9.14
2019-01-13T11:17:10.148Z,9.18
2019-01-13T11:18:10.061Z,9.15
2019-01-13T11:19:10.027Z,9.20
2019-01-13T11:20:10.013Z,9.17
2019-01-13T11:21:09.984Z,9.13
2019-01-13T11:22:10.008Z,9.14
2019-01-13T11:23:09.946Z,9.14
2019-01-13T11:24:09.921Z,9.15
2019-01-13T11:25:09.893Z,9.11
2019-01-13T11:26:09.867Z,9.14
2019-01-13T11:27:09.845Z,9.18
2019-01-13T11:28:09.832Z,9.17
2019-01-13T11:29:09.823Z,9.20
2019-01-13T11:30:09.775Z,9.18
2019-01-13T11:31:09.756Z,9.17
2019-01-13T11:32:09.729Z,9.18
2019-01-13T11:33:10.000Z,9.15
2019-01-13T11:34:09.690Z,9.18
2019-01-13T11:35:09.676Z,9.20
2019-01-13T11:36:09.647Z,9.20
2019-01-13T11:37:09.628Z,9.14
2019-01-13T11:38:09.597Z,9.21
2019-01-13T11:39:09.581Z,9.24
2019-01-13T11:40:09.551Z,9.18
2019-01-13T11:41:09.524Z,9.15
2019-01-13T11:42:09.509Z,9.20
2019-01-13T11:43:11.204Z,9.18
2019-01-13T11:44:09.464Z,9.18
2019-01-13T11:45:09.431Z,9.17
2019-01-13T11:46:09.412Z,9.15
2019-01-13T11:47:09.387Z,9.20
2019-01-13T11:48:09.362Z,9.24
2019-01-13T11:49:09.342Z,9.18
2019-01-13T11:50:09.319Z,9.18
2019-01-13T11:51:09.293Z,9.24
2019-01-13T11:52:09.277Z,9.20
2019-01-13T11:53:09.248Z,9.20
2019-01-13T11:54:09.234Z,9.15
2019-01-13T11:55:09.204Z,9.21
2019-01-13T11:56:09.180Z,9.17
2019-01-13T11:57:09.165Z,9.24
2019-01-13T11:58:09.141Z,9.24
2019-01-13T11:59:09.111Z,9.20
2019-01-13T12:00:09.092Z,9.15
2019-01-13T12:01:09.072Z,9.21
2019-01-13T12:02:09.043Z,9.15
2019-01-13T12:03:09.028Z,9.31
2019-01-13T12:04:08.997Z,9.21
2019-01-13T12:05:08.985Z,9.21
2019-01-13T12:06:08.956Z,9.20
2019-01-13T12:07:08.939Z,9.18
2019-01-13T12:08:08.904Z,9.20
2019-01-13T12:09:08.888Z,9.14
2019-01-13T12:10:08.859Z,9.20
2019-01-13T12:11:08.843Z,9.21
2019-01-13T12:12:08.813Z,9.28
2019-01-13T12:13:08.798Z,9.24
2019-01-13T12:14:08.774Z,9.24
2019-01-13T12:15:08.747Z,9.20
2019-01-13T12:16:08.720Z,9.15
2019-01-13T12:17:08.705Z,9.28
2019-01-13T12:18:08.686Z,9.18
2019-01-13T12:19:08.663Z,9.14
2019-01-13T12:20:08.630Z,9.24
2019-01-13T12:21:08.604Z,9.20
2019-01-13T12:22:08.588Z,9.24
2019-01-13T12:23:08.565Z,9.23
2019-01-13T12:24:08.546Z,9.20
2019-01-13T12:25:08.513Z,9.14
2019-01-13T12:26:08.496Z,9.20
2019-01-13T12:27:08.471Z,9.24
2019-01-13T12:28:08.451Z,9.18
2019-01-13T12:29:08.427Z,9.14
2019-01-13T12:30:08.423Z,9.15
2019-01-13T12:31:08.386Z,9.18
2019-01-13T12:32:08.359Z,9.20
2019-01-13T12:33:08.345Z,9.15
2019-01-13T12:34:08.311Z,9.11
2019-01-13T12:35:08.292Z,9.14
2019-01-13T12:36:08.268Z,9.23
2019-01-13T12:37:08.572Z,9.21
2019-01-13T12:38:08.217Z,9.18
2019-01-13T12:39:08.193Z,9.18
2019-01-13T12:40:08.181Z,9.10
2019-01-13T12:41:08.148Z,9.18
2019-01-13T12:42:08.126Z,9.15
2019-01-13T12:43:08.122Z,9.21
2019-01-13T12:44:08.097Z,9.24
2019-01-13T12:45:08.062Z,9.17
2019-01-13T12:46:08.032Z,9.17
2019-01-13T12:47:08.011Z,9.18
2019-01-13T12:48:07.990Z,9.24
2019-01-13T12:49:07.964Z,9.20
2019-01-13T12:50:07.958Z,9.17
2019-01-13T12:51:07.920Z,9.20
2019-01-13T12:52:07.913Z,9.20
2019-01-13T12:53:07.885Z,9.20
2019-01-13T12:54:07.855Z,9.21
2019-01-13T12:55:07.827Z,9.14
2019-01-13T12:56:07.807Z,9.21
2019-01-13T12:57:07.788Z,9.23
2019-01-13T12:58:07.777Z,9.17
2019-01-13T12:59:07.743Z,9.18
2019-01-13T13:00:07.711Z,9.20
2019-01-13T13:01:07.695Z,9.23
2019-01-13T13:02:07.665Z,9.14
2019-01-13T13:03:07.663Z,9.17
2019-01-13T13:04:07.630Z,9.15
2019-01-13T13:05:07.603Z,9.21
2019-01-13T13:06:07.574Z,9.18
2019-01-13T13:07:07.556Z,9.23
2019-01-13T13:08:07.527Z,9.10
2019-01-13T13:09:07.515Z,9.15
2019-01-13T13:10:07.480Z,9.23
2019-01-13T13:11:07.464Z,9.10
2019-01-13T13:12:07.442Z,9.21
2019-01-13T13:13:07.417Z,9.18
2019-01-13T13:14:07.400Z,9.13
2019-01-13T13:15:07.375Z,9.18
2019-01-13T13:16:07.345Z,9.15
2019-01-13T13:17:07.326Z,9.15
2019-01-13T13:18:07.304Z,9.14